createdAt,value
2019-01-23T00:00:35.289Z,24.10
2019-01-23T00:03:01.508Z,23.50
2019-01-23T00:05:28.021Z,23.63
2019-01-23T00:07:54.214Z,24.60
2019-01-23T00:10:20.407Z,24.20
2019-01-23T00:12:46.618Z,24.23
2019-01-23T00:15:12.815Z,23.03
2019-01-23T00:17:39.029Z,23.57
2019-01-23T00:20:07.331Z,24.30
2019-01-23T00:22:33.538Z,23.77
2019-01-23T00:24:59.730Z,25.57
2019-01-23T00:27:25.933Z,24.13
2019-01-23T00:29:52.132Z,23.30
2019-01-23T00:32:18.339Z,24.53
2019-01-23T00:34:44.525Z,24.40
2019-01-23T00:37:10.724Z,22.83
2019-01-23T00:39:36.921Z,22.60
2019-01-23T00:42:03.618Z,24.40
2019-01-23T00:44:29.807Z,21.80
2019-01-23T00:46:56.018Z,22.50
2019-01-23T00:49:22.209Z,23.13
2019-01-23T00:51:48.403Z,24.20
2019-01-23T00:54:15.008Z,21.20
2019-01-23T00:56:41.211Z,22.53
2019-01-23T00:59:07.394Z,21.47
2019-01-23T01:01:33.615Z,20.87
2019-01-23T01:03:59.808Z,21.43
2019-01-23T01:06:26.013Z,21.70
2019-01-23T01:08:52.209Z,18.97
2019-01-23T01:11:18.410Z,20.13
2019-01-23T01:13:44.610Z,20.40
2019-01-23T01:16:10.826Z,19.83
2019-01-23T01:18:37.013Z,20.83
2019-01-23T01:21:03.233Z,20.53
2019-01-23T01:23:29.418Z,20.60
2019-01-23T01:25:55.617Z,21.37
2019-01-23T01:28:21.825Z,21.20
2019-01-23T01:30:48.016Z,20.70
2019-01-23T01:33:14.223Z,19.53
2019-01-23T01:35:40.410Z,20.20
2019-01-23T01:38:06.613Z,20.90
2019-01-23T01:40:32.809Z,21.10
2019-01-23T01:42:59.007Z,21.10
2019-01-23T01:45:25.305Z,20.70
2019-01-23T01:47:51.510Z,20.60
2019-01-23T01:50:18.698Z,19.40
2019-01-23T01:52:45.007Z,20.17
2019-01-23T01:55:11.312Z,20.83
2019-01-23T01:57:37.513Z,19.77
2019-01-23T02:00:09.414Z,20.20
2019-01-23T02:02:35.623Z,20.60
2019-01-23T04:03:16.684Z,27.77
2019-01-23T04:05:42.865Z,28.47
2019-01-23T04:08:09.382Z,28.10
2019-01-23T04:10:35.571Z,30.60
2019-01-23T04:13:01.768Z,30.07
2019-01-23T04:15:27.949Z,32.03
2019-01-23T04:17:54.139Z,29.50
2019-01-23T04:20:21.135Z,31.03
2019-01-23T04:22:47.524Z,27.43
2019-01-23T04:25:14.011Z,30.37
2019-01-23T04:27:40.314Z,28.83
2019-01-23T04:30:20.188Z,30.47
2019-01-23T04:32:46.589Z,30.83
2019-01-23T04:35:12.785Z,27.37
2019-01-23T04:37:38.981Z,30.13
2019-01-23T04:40:11.371Z,28.00
2019-01-23T04:42:37.570Z,29.13
2019-01-23T04:45:11.685Z,27.30
2019-01-23T04:47:38.238Z,29.13
2019-01-23T04:50:08.741Z,30.97
2019-01-23T04:52:55.175Z,27.90
2019-01-23T04:55:21.354Z,29.43
2019-01-23T04:57:47.545Z,28.30
2019-01-23T05:00:15.742Z,30.73
2019-01-23T05:02:41.939Z,27.90
2019-01-23T05:05:08.541Z,16.77
2019-01-23T05:07:34.713Z,28.07
2019-01-23T05:10:00.954Z,27.70
2019-01-23T05:12:27.087Z,26.73
2019-01-23T05:14:53.276Z,30.17
2019-01-23T05:17:19.475Z,24.37
2019-01-23T05:19:45.675Z,28.70
2019-01-23T05:22:11.865Z,28.23
2019-01-23T05:24:38.053Z,27.73
2019-01-23T05:27:04.230Z,27.20
2019-01-23T05:29:30.423Z,28.80
2019-01-23T05:31:56.607Z,29.57
2019-01-23T05:34:22.791Z,28.60
2019-01-23T05:36:48.974Z,28.77
2019-01-23T05:39:15.175Z,26.97
2019-01-23T05:41:41.362Z,28.73
2019-01-23T05:44:07.547Z,29.37
2019-01-23T05:46:33.727Z,29.80
2019-01-23T05:48:59.920Z,28.03
2019-01-23T05:51:26.095Z,25.90
2019-01-23T05:53:52.298Z,27.00
2019-01-23T05:56:18.478Z,28.97
2019-01-23T05:58:44.654Z,28.43
2019-01-23T06:01:10.854Z,30.57
2019-01-23T06:03:37.054Z,28.13
2019-01-23T06:06:03.333Z,29.63
2019-01-23T06:08:29.517Z,28.77
2019-01-23T06:10:55.692Z,28.90
2019-01-23T06:13:21.890Z,30.53
2019-01-23T06:15:48.069Z,29.33
2019-01-23T06:18:14.253Z,28.50
2019-01-23T06:20:40.440Z,28.47
2019-01-23T06:23:06.624Z,29.90
2019-01-23T06:25:32.845Z,28.07
2019-01-23T06:27:59.015Z,24.23
2019-01-23T06:30:25.608Z,29.37
2019-01-23T06:32:51.783Z,26.17
2019-01-23T06:35:17.974Z,25.00
2019-01-23T06:37:44.163Z,26.67
2019-01-23T06:40:13.063Z,29.13
2019-01-23T06:42:39.251Z,30.43
2019-01-23T06:45:10.355Z,28.13
2019-01-23T06:47:51.843Z,29.17
2019-01-23T06:50:20.349Z,28.83
2019-01-23T06:52:46.530Z,27.37
2019-01-23T06:55:13.025Z,27.93
2019-01-23T06:57:39.198Z,29.97
2019-01-23T07:00:17.291Z,26.83
2019-01-23T07:02:44.526Z,29.07
2019-01-23T07:05:11.328Z,24.10
2019-01-23T07:07:37.507Z,28.83
2019-01-23T07:10:14.907Z,24.90
2019-01-23T07:12:41.094Z,25.57
2019-01-23T07:15:10.282Z,26.93
2019-01-23T07:17:36.812Z,21.50
2019-01-23T07:20:14.227Z,28.67
2019-01-23T07:22:40.405Z,26.57
2019-01-23T07:25:08.295Z,26.73
2019-01-23T07:27:34.479Z,29.10
2019-01-23T07:30:00.683Z,25.40
2019-01-23T07:32:26.855Z,30.00
2019-01-23T07:34:53.047Z,28.20
2019-01-23T07:37:19.231Z,28.73
2019-01-23T07:39:45.423Z,30.43
2019-01-23T07:42:11.604Z,29.00
2019-01-23T07:44:37.783Z,31.03
2019-01-23T07:47:03.958Z,29.20
2019-01-23T07:49:30.158Z,29.00
2019-01-23T07:51:56.346Z,29.53
2019-01-23T07:54:22.526Z,30.53
2019-01-23T07:56:48.699Z,29.50
2019-01-23T07:59:15.181Z,29.53
2019-01-23T08:01:41.729Z,29.37
2019-01-23T08:04:07.910Z,30.03
2019-01-23T08:06:34.380Z,31.93
2019-01-23T08:09:00.550Z,30.93
2019-01-23T08:11:26.736Z,29.67
2019-01-23T08:13:53.002Z,30.87
2019-01-23T08:16:19.319Z,30.27
2019-01-23T08:18:45.507Z,30.03
2019-01-23T08:21:11.695Z,30.83
2019-01-23T08:23:37.880Z,30.00
2019-01-23T08:26:04.069Z,30.73
2019-01-23T08:28:30.236Z,31.90
2019-01-23T08:30:56.422Z,29.20
2019-01-23T08:33:22.603Z,30.17
2019-01-23T08:35:49.118Z,30.53
2019-01-23T08:38:15.288Z,29.50
2019-01-23T08:40:41.479Z,30.67
2019-01-23T08:43:07.672Z,30.43
2019-01-23T08:45:33.958Z,29.30
2019-01-23T08:48:00.136Z,29.57
2019-01-23T08:50:36.309Z,30.23
2019-01-23T08:53:03.572Z,30.50
2019-01-23T08:55:29.758Z,26.50
2019-01-23T08:57:55.935Z,27.90
2019-01-23T09:00:22.111Z,28.37
2019-01-23T09:02:48.295Z,26.73
2019-01-23T09:05:14.893Z,26.83
2019-01-23T09:07:42.173Z,29.13
2019-01-23T09:10:13.766Z,27.07
2019-01-23T09:12:39.949Z,27.03
2019-01-23T09:15:11.371Z,26.93
2019-01-23T09:17:37.554Z,26.60
2019-01-23T09:20:08.552Z,28.33
2019-01-23T09:22:34.739Z,26.27
2019-01-23T09:25:00.943Z,27.83
2019-01-23T09:27:27.118Z,26.20
2019-01-23T09:29:53.303Z,26.50
2019-01-23T09:32:30.994Z,26.20
2019-01-23T09:35:12.167Z,21.07
2019-01-23T09:38:00.705Z,25.53
2019-01-23T09:40:32.610Z,25.40
2019-01-23T09:43:15.663Z,27.07
2019-01-23T09:46:05.595Z,25.20
2019-01-23T09:48:52.804Z,23.90
2019-01-23T09:51:59.408Z,27.10
2019-01-23T09:54:26.451Z,25.67
2019-01-23T09:56:52.673Z,24.83
2019-01-23T09:59:18.841Z,25.37
2019-01-23T10:01:45.036Z,24.83
2019-01-23T10:04:11.219Z,24.60
2019-01-23T10:06:37.420Z,24.63
2019-01-23T10:09:06.825Z,24.67
2019-01-23T10:11:33.016Z,24.90
2019-01-23T10:13:59.190Z,25.50
2019-01-23T10:16:25.383Z,24.57
2019-01-23T10:18:56.053Z,26.87
2019-01-23T10:21:19.650Z,26.50
2019-01-23T10:23:45.835Z,24.73
2019-01-23T10:26:12.036Z,25.33
2019-01-23T10:28:38.221Z,24.03
2019-01-23T10:31:06.744Z,24.40
2019-01-23T10:33:32.491Z,17.07
2019-01-23T10:35:58.697Z,23.87
2019-01-23T10:38:24.879Z,23.97
2019-01-23T10:40:51.086Z,24.50
2019-01-23T10:43:17.267Z,23.57
2019-01-23T10:45:43.455Z,23.93
2019-01-23T10:48:09.639Z,22.47
2019-01-23T10:50:35.826Z,21.80
2019-01-23T10:53:02.010Z,23.13
2019-01-23T10:55:28.195Z,23.13
2019-01-23T10:57:54.386Z,23.43
2019-01-23T11:00:22.659Z,21.93
2019-01-23T11:02:48.971Z,23.77
2019-01-23T11:05:19.555Z,22.00
2019-01-23T11:07:45.952Z,22.50
2019-01-23T11:10:19.546Z,22.27
2019-01-23T11:12:45.746Z,20.47
2019-01-23T11:15:12.423Z,22.33
2019-01-23T11:17:38.612Z,22.33
2019-01-23T11:20:12.570Z,19.83
2019-01-23T11:22:38.756Z,23.60
2019-01-23T11:25:09.337Z,20.97
2019-01-23T11:27:35.532Z,21.80
2019-01-23T11:30:03.721Z,21.93
2019-01-23T11:32:29.922Z,22.50
2019-01-23T11:34:56.111Z,23.77
2019-01-23T11:37:22.298Z,22.90
2019-01-23T11:39:48.464Z,23.23
2019-01-23T11:42:14.647Z,21.77
2019-01-23T11:44:40.832Z,20.63
2019-01-23T11:47:07.116Z,23.47
2019-01-23T11:49:33.302Z,24.20
2019-01-23T11:51:59.496Z,23.00
2019-01-23T11:54:25.978Z,23.07
2019-01-23T11:56:52.172Z,24.10
2019-01-23T11:59:18.349Z,23.30
2019-01-23T12:01:44.544Z,23.60
2019-01-23T12:04:10.717Z,22.87
2019-01-23T12:06:36.902Z,24.20
2019-01-23T12:09:06.495Z,23.37
2019-01-23T12:11:32.690Z,23.83
2019-01-23T12:13:58.877Z,24.17
2019-01-23T12:16:25.069Z,23.63
2019-01-23T12:18:51.243Z,22.27
2019-01-23T12:21:17.539Z,21.50
2019-01-23T12:23:43.733Z,22.50
2019-01-23T12:26:09.916Z,20.50
2019-01-23T12:28:36.099Z,21.30
2019-01-23T12:31:02.291Z,18.63
2019-01-23T12:33:28.718Z,19.70
2019-01-23T12:35:54.897Z,18.77
2019-01-23T12:38:21.086Z,19.93
2019-01-23T12:40:47.263Z,20.63
2019-01-23T12:43:13.438Z,40.50
2019-01-23T12:45:39.830Z,42.53
2019-01-23T12:48:06.008Z,54.23
2019-01-23T12:50:32.488Z,54.47
2019-01-23T12:52:59.117Z,50.53
2019-01-23T12:55:25.605Z,54.80
2019-01-23T12:57:51.827Z,54.83
2019-01-23T13:00:27.591Z,52.63
2019-01-23T13:02:55.098Z,52.97
2019-01-23T13:05:21.791Z,52.60
2019-01-23T13:07:47.984Z,48.50
2019-01-23T13:10:17.675Z,51.93
2019-01-23T13:12:46.321Z,50.63
2019-01-23T13:15:22.503Z,51.50
2019-01-23T13:17:48.919Z,52.90
2019-01-23T13:20:23.363Z,53.63
2019-01-23T13:22:49.662Z,51.63
2019-01-23T13:25:24.988Z,50.47
2019-01-23T13:27:51.386Z,56.57
2019-01-23T13:30:23.544Z,57.23
2019-01-23T13:32:58.768Z,58.53
2019-01-23T13:35:29.053Z,56.47
2019-01-23T13:38:03.776Z,56.67
2019-01-23T13:41:38.600Z,54.30
2019-01-23T13:44:04.890Z,52.20
2019-01-23T13:46:31.083Z,48.23
2019-01-23T13:48:57.283Z,53.77
2019-01-23T13:51:41.675Z,49.77
2019-01-23T13:54:07.875Z,37.53
2019-01-23T13:56:34.058Z,52.23
2019-01-23T13:59:00.495Z,53.43
2019-01-23T14:01:26.805Z,53.70
2019-01-23T14:03:52.970Z,51.70
2019-01-23T14:06:19.164Z,44.97
2019-01-23T14:08:56.608Z,55.07
2019-01-23T14:11:22.827Z,57.03
2019-01-23T14:13:48.988Z,42.47
2019-01-23T14:16:15.171Z,56.07
2019-01-23T14:19:01.428Z,52.03
2019-01-23T14:21:27.599Z,56.90
2019-01-23T14:23:53.800Z,57.33
2019-01-23T14:26:19.988Z,47.73
2019-01-23T14:28:46.188Z,54.03
2019-01-23T14:31:12.369Z,49.63
2019-01-23T14:33:38.557Z,47.97
2019-01-23T14:36:10.766Z,48.07
2019-01-23T14:38:36.961Z,50.03
2019-01-23T14:41:03.335Z,52.90
2019-01-23T14:43:29.533Z,41.40
2019-01-23T14:45:55.718Z,52.30
2019-01-23T14:48:21.912Z,40.03
2019-01-23T14:50:48.090Z,53.80
2019-01-23T14:53:14.282Z,50.70
2019-01-23T14:55:40.456Z,48.23
2019-01-23T14:58:06.755Z,51.07
2019-01-23T15:00:32.932Z,47.17
2019-01-23T15:02:59.223Z,47.60
2019-01-23T15:05:25.397Z,46.47
2019-01-23T15:07:51.890Z,45.23
2019-01-23T15:10:24.953Z,49.80
2019-01-23T15:12:51.351Z,48.40
2019-01-23T15:15:17.951Z,48.23
2019-01-23T15:17:44.345Z,44.83
2019-01-23T15:20:18.397Z,48.57
2019-01-23T15:22:44.596Z,47.83
2019-01-23T15:25:11.279Z,46.53
2019-01-23T15:27:37.458Z,44.77
2019-01-23T15:30:08.155Z,32.40
2019-01-23T15:32:34.342Z,46.90
2019-01-23T15:35:00.522Z,35.47
2019-01-23T15:37:26.708Z,48.20
2019-01-23T15:39:52.908Z,48.30
2019-01-23T15:42:19.090Z,49.40
2019-01-23T15:44:45.284Z,46.70
2019-01-23T15:47:11.468Z,42.83
2019-01-23T15:49:37.717Z,45.10
2019-01-23T15:52:03.842Z,42.80
2019-01-23T15:54:30.039Z,43.37
2019-01-23T15:56:56.214Z,44.47
2019-01-23T15:59:22.400Z,43.93
2019-01-23T16:01:48.584Z,45.20
2019-01-23T16:04:14.868Z,32.03
2019-01-23T16:06:41.046Z,33.67
2019-01-23T16:09:07.444Z,38.70
2019-01-23T16:11:33.632Z,43.73
2019-01-23T16:13:59.826Z,41.13
2019-01-23T16:16:26.316Z,41.13
2019-01-23T16:18:52.825Z,42.83
2019-01-23T16:21:19.008Z,43.17
2019-01-23T16:23:45.195Z,40.00
2019-01-23T16:26:11.373Z,36.53
2019-01-23T16:28:37.575Z,28.07
2019-01-23T16:31:03.744Z,41.53
2019-01-23T16:33:29.951Z,37.97
2019-01-23T16:36:36.660Z,39.03
2019-01-23T16:39:06.180Z,39.23
2019-01-23T16:41:32.651Z,38.30
2019-01-23T16:43:58.843Z,36.17
2019-01-23T16:46:25.042Z,39.60
2019-01-23T16:48:51.232Z,38.77
2019-01-23T16:51:17.405Z,30.87
2019-01-23T16:53:43.595Z,37.13
2019-01-23T16:56:09.784Z,38.97
2019-01-23T16:58:35.962Z,39.90
2019-01-23T17:01:02.236Z,37.27
2019-01-23T17:03:28.439Z,38.10
2019-01-23T17:05:54.919Z,38.53
2019-01-23T17:08:21.108Z,38.30
2019-01-23T17:10:47.578Z,38.10
2019-01-23T17:13:14.269Z,37.30
2019-01-23T17:15:40.470Z,37.17
2019-01-23T17:18:06.652Z,36.87
2019-01-23T17:20:37.065Z,35.20
2019-01-23T17:23:04.200Z,32.23
2019-01-23T17:25:30.945Z,32.43
2019-01-23T17:27:57.229Z,31.87
2019-01-23T17:30:23.647Z,30.87
2019-01-23T17:32:50.015Z,33.00
2019-01-23T17:35:18.621Z,33.30
2019-01-23T17:37:44.913Z,31.73
2019-01-23T17:40:19.691Z,32.30
2019-01-23T17:42:46.363Z,32.10
2019-01-23T17:45:17.271Z,32.37
2019-01-23T17:47:43.558Z,29.57
2019-01-23T17:50:14.855Z,32.47
2019-01-23T17:52:41.045Z,31.80
2019-01-23T17:55:20.674Z,31.47
2019-01-23T17:57:46.851Z,31.93
2019-01-23T18:00:20.053Z,28.27
2019-01-23T18:02:52.513Z,29.77
2019-01-23T18:05:14.352Z,30.50
2019-01-23T18:07:40.530Z,27.87
2019-01-23T18:10:08.919Z,26.93
2019-01-23T18:12:35.105Z,30.00
2019-01-23T18:15:01.290Z,28.53
2019-01-23T18:17:27.672Z,28.10
2019-01-23T18:19:53.869Z,27.13
2019-01-23T18:22:20.329Z,26.97
2019-01-23T18:24:46.528Z,27.77
2019-01-23T18:27:12.909Z,26.23
2019-01-23T18:29:39.291Z,28.00
2019-01-23T18:32:05.464Z,27.00
2019-01-23T18:34:57.084Z,26.67
2019-01-23T18:37:46.124Z,27.10
2019-01-23T18:40:37.979Z,28.27
2019-01-23T18:43:27.853Z,25.93
2019-01-23T18:46:17.896Z,26.70
2019-01-23T18:49:22.479Z,25.10
2019-01-23T18:52:06.519Z,26.70
2019-01-23T18:54:32.711Z,26.43
2019-01-23T18:56:58.887Z,25.37
2019-01-23T18:59:25.072Z,26.00
2019-01-23T19:02:01.646Z,27.53
2019-01-23T19:04:27.886Z,27.30
2019-01-23T19:06:54.068Z,27.97
2019-01-23T19:09:30.180Z,26.37
2019-01-23T19:11:56.476Z,25.97
2019-01-23T19:14:24.569Z,26.97
2019-01-23T19:16:51.027Z,26.23
2019-01-23T19:19:17.210Z,26.20
2019-01-23T19:21:43.447Z,29.33
2019-01-23T19:24:44.512Z,26.57
2019-01-23T19:27:10.893Z,26.63
2019-01-23T19:29:52.543Z,26.03
2019-01-23T19:32:24.593Z,26.40
2019-01-23T19:35:09.963Z,26.03
2019-01-23T19:37:36.163Z,25.50
2019-01-23T19:40:06.657Z,27.07
2019-01-23T19:42:32.848Z,27.17
2019-01-23T19:44:59.036Z,25.97
2019-01-23T19:47:25.227Z,26.63
2019-01-23T19:49:51.510Z,27.13
2019-01-23T19:52:17.811Z,26.33
2019-01-23T19:54:43.989Z,24.60
2019-01-23T19:57:32.336Z,27.60
2019-01-23T19:59:58.893Z,27.00
2019-01-23T20:02:25.087Z,27.07
2019-01-23T20:04:51.269Z,26.23
2019-01-23T20:07:17.452Z,26.73
2019-01-23T20:09:43.638Z,26.33
2019-01-23T20:12:15.622Z,25.77
2019-01-23T20:14:37.914Z,26.10
2019-01-23T20:17:13.038Z,26.40
2019-01-23T20:19:39.215Z,25.40
2019-01-23T20:22:05.411Z,28.53
2019-01-23T20:24:31.587Z,26.67
2019-01-23T20:26:58.051Z,24.40
2019-01-23T20:29:25.310Z,25.93
2019-01-23T20:31:51.835Z,26.30
2019-01-23T20:34:18.019Z,26.47
2019-01-23T20:36:44.207Z,27.00
2019-01-23T20:39:10.404Z,28.23
2019-01-23T20:41:36.590Z,26.13
2019-01-23T20:44:03.483Z,26.00
2019-01-23T20:46:29.674Z,24.50
2019-01-23T20:48:55.945Z,27.23
2019-01-23T20:51:38.256Z,27.07
2019-01-23T20:54:10.320Z,25.33
2019-01-23T20:56:36.508Z,26.07
2019-01-23T20:59:02.981Z,26.90
2019-01-23T21:01:29.179Z,28.83
2019-01-23T21:03:55.447Z,28.13
2019-01-23T21:06:21.648Z,27.70
2019-01-23T21:08:47.827Z,27.83
2019-01-23T21:11:14.345Z,26.97
2019-01-23T21:13:43.638Z,26.93
2019-01-23T21:16:10.047Z,26.67
2019-01-23T21:18:48.892Z,26.40
2019-01-23T21:21:24.251Z,26.17
2019-01-23T21:23:50.440Z,24.47
2019-01-23T21:26:16.622Z,24.17
2019-01-23T21:28:42.794Z,24.23
2019-01-23T21:31:09.771Z,25.07
2019-01-23T21:33:41.855Z,23.33
2019-01-23T21:36:04.367Z,23.87
2019-01-23T21:38:30.532Z,23.47
2019-01-23T21:40:56.728Z,23.77
2019-01-23T21:43:22.977Z,24.47
2019-01-23T21:45:49.191Z,23.70
2019-01-23T21:48:15.368Z,23.33
2019-01-23T21:50:41.558Z,23.37
2019-01-23T21:53:07.735Z,23.10
2019-01-23T21:55:33.912Z,24.27
2019-01-23T21:58:00.103Z,23.37
2019-01-23T22:00:30.995Z,22.43
2019-01-23T22:03:00.303Z,23.10
2019-01-23T22:05:26.581Z,22.93
2019-01-23T22:07:52.766Z,23.90
2019-01-23T22:10:19.965Z,23.90
2019-01-23T22:12:46.514Z,23.03
2019-01-23T22:15:23.051Z,25.13
2019-01-23T22:17:49.247Z,23.10
2019-01-23T22:20:18.623Z,25.90
2019-01-23T22:22:44.819Z,26.00
2019-01-23T22:25:56.617Z,22.27
2019-01-23T22:28:22.792Z,22.67
2019-01-23T22:30:48.982Z,21.63
2019-01-23T22:33:15.167Z,24.03
2019-01-23T22:35:41.355Z,23.40
2019-01-23T22:38:10.751Z,23.43
2019-01-23T22:40:58.574Z,24.43
2019-01-23T22:43:24.767Z,25.17
2019-01-23T22:45:50.957Z,24.73
2019-01-23T22:48:17.145Z,25.27
2019-01-23T22:50:43.319Z,25.50
2019-01-23T22:53:09.511Z,24.40
2019-01-23T22:55:35.692Z,25.70
2019-01-23T22:58:02.181Z,26.30
2019-01-23T23:00:40.742Z,25.00
2019-01-23T23:03:10.448Z,25.40
2019-01-23T23:05:36.624Z,29.13
2019-01-23T23:08:04.114Z,28.47
2019-01-23T23:10:30.777Z,28.63
2019-01-23T23:12:56.978Z,27.57
2019-01-23T23:15:23.155Z,25.63
2019-01-23T23:17:49.342Z,26.50
2019-01-23T23:20:15.516Z,25.40
2019-01-23T23:22:41.707Z,25.23
2019-01-23T23:25:08.884Z,24.87
2019-01-23T23:27:39.407Z,27.50
2019-01-23T23:30:08.884Z,27.60
2019-01-23T23:32:35.085Z,27.97
2019-01-23T23:35:01.260Z,27.20
2019-01-23T23:37:27.448Z,27.23
2019-01-23T23:39:53.628Z,29.27
2019-01-23T23:42:19.820Z,31.67
2019-01-23T23:44:46.005Z,29.03
2019-01-23T23:47:12.201Z,29.03
2019-01-23T23:49:38.377Z,28.13
2019-01-23T23:52:04.564Z,29.07
2019-01-23T23:54:30.743Z,27.80
2019-01-23T23:56:56.923Z,29.03
2019-01-23T23:59:23.096Z,27.70
